sensor_id;sensor_type;location;lat;lon;timestamp;P1;durP1;ratioP1;P2;durP2;ratioP2
20970;SDS011;10644;48.834;10.088;2023-05-19T00:02:14;9.20;;;4.93;;
20970;SDS011;10644;48.834;10.088;2023-05-19T00:04:42;7.73;;;4.90;;
20970;SDS011;10644;48.834;10.088;2023-05-19T00:07:08;8.37;;;4.60;;
20970;SDS011;10644;48.834;10.088;2023-05-19T00:09:35;8.97;;;4.70;;
20970;SDS011;10644;48.834;10.088;2023-05-19T00:12:00;12.80;;;4.90;;
20970;SDS011;10644;48.834;10.088;2023-05-19T00:14:26;9.00;;;4.80;;
20970;SDS011;10644;48.834;10.088;2023-05-19T00:16:53;10.43;;;4.33;;
20970;SDS011;10644;48.834;10.088;2023-05-19T00:19:21;29.97;;;3.70;;
20970;SDS011;10644;48.834;10.088;2023-05-19T00:21:48;6.23;;;3.50;;
20970;SDS011;10644;48.834;10.088;2023-05-19T00:24:13;9.03;;;4.23;;
20970;SDS011;10644;48.834;10.088;2023-05-19T00:26:39;6.70;;;3.90;;
20970;SDS011;10644;48.834;10.088;2023-05-19T00:29:04;7.60;;;3.83;;
20970;SDS011;10644;48.834;10.088;2023-05-19T00:31:29;11.77;;;4.83;;
20970;SDS011;10644;48.834;10.088;2023-05-19T00:33:55;8.27;;;3.87;;
20970;SDS011;10644;48.834;10.088;2023-05-19T00:36:21;5.97;;;4.07;;
20970;SDS011;10644;48.834;10.088;2023-05-19T00:38:46;6.40;;;3.57;;
20970;SDS011;10644;48.834;10.088;2023-05-19T00:41:12;7.93;;;4.33;;
20970;SDS011;10644;48.834;10.088;2023-05-19T00:43:37;15.03;;;4.93;;
20970;SDS011;10644;48.834;10.088;2023-05-19T00:46:04;6.90;;;3.90;;
20970;SDS011;10644;48.834;10.088;2023-05-19T00:48:31;7.37;;;4.00;;
20970;SDS011;10644;48.834;10.088;2023-05-19T00:50:56;13.40;;;4.53;;
20970;SDS011;10644;48.834;10.088;2023-05-19T00:53:28;7.07;;;3.73;;
20970;SDS011;10644;48.834;10.088;2023-05-19T00:55:54;6.73;;;3.80;;
20970;SDS011;10644;48.834;10.088;2023-05-19T00:58:20;6.83;;;4.10;;
20970;SDS011;10644;48.834;10.088;2023-05-19T01:00:47;5.87;;;3.90;;
20970;SDS011;10644;48.834;10.088;2023-05-19T01:03:14;6.83;;;3.77;;
20970;SDS011;10644;48.834;10.088;2023-05-19T01:05:44;9.70;;;4.10;;
20970;SDS011;10644;48.834;10.088;2023-05-19T01:08:09;14.20;;;4.30;;
20970;SDS011;10644;48.834;10.088;2023-05-19T01:10:35;9.93;;;5.17;;
20970;SDS011;10644;48.834;10.088;2023-05-19T01:13:01;10.07;;;4.80;;
20970;SDS011;10644;48.834;10.088;2023-05-19T01:15:27;9.53;;;4.33;;
20970;SDS011;10644;48.834;10.088;2023-05-19T01:18:00;8.70;;;4.00;;
20970;SDS011;10644;48.834;10.088;2023-05-19T01:28:44;4.70;;;3.03;;
20970;SDS011;10644;48.834;10.088;2023-05-19T01:31:10;8.00;;;4.27;;
20970;SDS011;10644;48.834;10.088;2023-05-19T01:33:36;8.43;;;4.10;;
20970;SDS011;10644;48.834;10.088;2023-05-19T01:36:03;6.90;;;4.00;;
20970;SDS011;10644;48.834;10.088;2023-05-19T01:38:32;7.47;;;3.53;;
20970;SDS011;10644;48.834;10.088;2023-05-19T01:40:58;7.80;;;3.93;;
20970;SDS011;10644;48.834;10.088;2023-05-19T01:43:26;5.83;;;3.23;;
20970;SDS011;10644;48.834;10.088;2023-05-19T01:45:53;8.67;;;4.00;;
20970;SDS011;10644;48.834;10.088;2023-05-19T01:48:19;9.80;;;4.63;;
20970;SDS011;10644;48.834;10.088;2023-05-19T01:50:45;6.33;;;3.90;;
20970;SDS011;10644;48.834;10.088;2023-05-19T01:53:10;6.40;;;4.00;;
20970;SDS011;10644;48.834;10.088;2023-05-19T01:55:42;8.73;;;4.00;;
20970;SDS011;10644;48.834;10.088;2023-05-19T02:01:28;7.53;;;4.17;;
20970;SDS011;10644;48.834;10.088;2023-05-19T02:07:02;10.73;;;4.33;;
20970;SDS011;10644;48.834;10.088;2023-05-19T02:09:38;6.07;;;3.63;;
20970;SDS011;10644;48.834;10.088;2023-05-19T02:15:02;8.63;;;4.33;;
20970;SDS011;10644;48.834;10.088;2023-05-19T02:17:35;7.03;;;4.53;;
20970;SDS011;10644;48.834;10.088;2023-05-19T02:20:04;10.57;;;4.10;;
20970;SDS011;10644;48.834;10.088;2023-05-19T02:22:30;8.60;;;5.47;;
20970;SDS011;10644;48.834;10.088;2023-05-19T02:24:56;15.80;;;4.20;;
20970;SDS011;10644;48.834;10.088;2023-05-19T02:27:24;10.30;;;4.57;;
20970;SDS011;10644;48.834;10.088;2023-05-19T02:29:50;7.07;;;4.03;;
20970;SDS011;10644;48.834;10.088;2023-05-19T02:32:16;10.53;;;3.90;;
20970;SDS011;10644;48.834;10.088;2023-05-19T02:34:42;10.37;;;4.40;;
20970;SDS011;10644;48.834;10.088;2023-05-19T02:37:12;6.97;;;3.73;;
20970;SDS011;10644;48.834;10.088;2023-05-19T02:39:39;10.90;;;4.87;;
20970;SDS011;10644;48.834;10.088;2023-05-19T02:42:08;11.63;;;4.60;;
20970;SDS011;10644;48.834;10.088;2023-05-19T02:44:33;8.50;;;4.80;;
20970;SDS011;10644;48.834;10.088;2023-05-19T02:46:58;15.37;;;4.63;;
20970;SDS011;10644;48.834;10.088;2023-05-19T02:49:24;11.43;;;5.13;;
20970;SDS011;10644;48.834;10.088;2023-05-19T02:51:49;15.43;;;5.17;;
20970;SDS011;10644;48.834;10.088;2023-05-19T02:54:15;9.43;;;4.90;;
20970;SDS011;10644;48.834;10.088;2023-05-19T02:56:40;8.80;;;4.27;;
20970;SDS011;10644;48.834;10.088;2023-05-19T02:59:05;10.90;;;5.17;;
20970;SDS011;10644;48.834;10.088;2023-05-19T03:01:31;11.73;;;4.03;;
20970;SDS011;10644;48.834;10.088;2023-05-19T03:04:01;8.27;;;4.87;;
20970;SDS011;10644;48.834;10.088;2023-05-19T03:06:26;14.13;;;5.50;;
20970;SDS011;10644;48.834;10.088;2023-05-19T03:08:52;11.00;;;4.00;;
20970;SDS011;10644;48.834;10.088;2023-05-19T03:11:17;8.93;;;4.73;;
20970;SDS011;10644;48.834;10.088;2023-05-19T03:13:42;11.33;;;4.90;;
20970;SDS011;10644;48.834;10.088;2023-05-19T03:16:08;7.33;;;3.90;;
20970;SDS011;10644;48.834;10.088;2023-05-19T03:18:36;9.77;;;4.73;;
20970;SDS011;10644;48.834;10.088;2023-05-19T03:21:04;15.50;;;4.70;;
20970;SDS011;10644;48.834;10.088;2023-05-19T03:23:30;8.97;;;4.60;;
20970;SDS011;10644;48.834;10.088;2023-05-19T03:25:55;7.73;;;4.50;;
20970;SDS011;10644;48.834;10.088;2023-05-19T03:28:20;10.53;;;5.40;;
20970;SDS011;10644;48.834;10.088;2023-05-19T03:30:47;12.87;;;5.40;;
20970;SDS011;10644;48.834;10.088;2023-05-19T03:33:14;10.43;;;5.10;;
20970;SDS011;10644;48.834;10.088;2023-05-19T03:35:40;5.50;;;4.37;;
20970;SDS011;10644;48.834;10.088;2023-05-19T03:38:05;12.27;;;5.47;;
20970;SDS011;10644;48.834;10.088;2023-05-19T03:40:30;12.20;;;6.10;;
20970;SDS011;10644;48.834;10.088;2023-05-19T03:42:56;10.77;;;4.93;;
20970;SDS011;10644;48.834;10.088;2023-05-19T03:45:21;9.80;;;5.43;;
20970;SDS011;10644;48.834;10.088;2023-05-19T03:47:50;9.50;;;4.60;;
20970;SDS011;10644;48.834;10.088;2023-05-19T03:50:15;11.10;;;6.30;;
20970;SDS011;10644;48.834;10.088;2023-05-19T03:52:40;9.20;;;4.47;;
20970;SDS011;10644;48.834;10.088;2023-05-19T03:55:09;11.93;;;4.90;;
20970;SDS011;10644;48.834;10.088;2023-05-19T03:57:34;13.93;;;6.07;;
20970;SDS011;10644;48.834;10.088;2023-05-19T04:00:00;11.30;;;5.57;;
20970;SDS011;10644;48.834;10.088;2023-05-19T04:02:26;13.83;;;5.83;;
20970;SDS011;10644;48.834;10.088;2023-05-19T04:04:51;12.73;;;5.23;;
20970;SDS011;10644;48.834;10.088;2023-05-19T04:07:17;13.43;;;5.73;;
20970;SDS011;10644;48.834;10.088;2023-05-19T04:09:43;11.30;;;5.40;;
20970;SDS011;10644;48.834;10.088;2023-05-19T04:12:09;9.70;;;4.73;;
20970;SDS011;10644;48.834;10.088;2023-05-19T04:14:34;9.60;;;5.50;;
20970;SDS011;10644;48.834;10.088;2023-05-19T04:16:59;11.93;;;5.50;;
20970;SDS011;10644;48.834;10.088;2023-05-19T04:19:25;14.30;;;5.17;;
20970;SDS011;10644;48.834;10.088;2023-05-19T04:21:50;25.03;;;6.30;;
20970;SDS011;10644;48.834;10.088;2023-05-19T04:24:15;13.50;;;5.57;;
20970;SDS011;10644;48.834;10.088;2023-05-19T04:26:41;9.47;;;5.20;;
20970;SDS011;10644;48.834;10.088;2023-05-19T04:29:09;13.40;;;5.10;;
20970;SDS011;10644;48.834;10.088;2023-05-19T04:31:37;12.17;;;5.17;;
20970;SDS011;10644;48.834;10.088;2023-05-19T04:34:04;18.40;;;6.50;;
20970;SDS011;10644;48.834;10.088;2023-05-19T04:36:31;11.07;;;5.77;;
20970;SDS011;10644;48.834;10.088;2023-05-19T04:38:58;10.07;;;5.90;;
20970;SDS011;10644;48.834;10.088;2023-05-19T04:41:26;11.20;;;6.50;;
20970;SDS011;10644;48.834;10.088;2023-05-19T04:43:51;9.77;;;5.53;;
20970;SDS011;10644;48.834;10.088;2023-05-19T04:46:17;13.87;;;6.13;;
20970;SDS011;10644;48.834;10.088;2023-05-19T04:48:42;11.83;;;5.87;;
20970;SDS011;10644;48.834;10.088;2023-05-19T04:51:08;13.13;;;5.43;;
20970;SDS011;10644;48.834;10.088;2023-05-19T04:53:33;11.60;;;5.40;;
20970;SDS011;10644;48.834;10.088;2023-05-19T04:55:59;10.00;;;6.03;;
20970;SDS011;10644;48.834;10.088;2023-05-19T04:58:25;9.30;;;5.57;;
20970;SDS011;10644;48.834;10.088;2023-05-19T05:00:51;20.17;;;6.37;;
20970;SDS011;10644;48.834;10.088;2023-05-19T05:03:19;12.73;;;5.60;;
20970;SDS011;10644;48.834;10.088;2023-05-19T05:05:48;10.97;;;5.47;;
20970;SDS011;10644;48.834;10.088;2023-05-19T05:08:13;12.67;;;6.00;;
20970;SDS011;10644;48.834;10.088;2023-05-19T05:10:47;13.00;;;5.80;;
20970;SDS011;10644;48.834;10.088;2023-05-19T05:13:22;12.27;;;5.53;;
20970;SDS011;10644;48.834;10.088;2023-05-19T05:15:48;15.20;;;6.73;;
20970;SDS011;10644;48.834;10.088;2023-05-19T05:18:16;13.07;;;6.20;;
20970;SDS011;10644;48.834;10.088;2023-05-19T05:20:41;12.97;;;5.50;;
20970;SDS011;10644;48.834;10.088;2023-05-19T05:23:08;19.10;;;5.63;;
20970;SDS011;10644;48.834;10.088;2023-05-19T05:25:34;12.53;;;6.43;;
20970;SDS011;10644;48.834;10.088;2023-05-19T05:28:00;13.70;;;5.30;;
20970;SDS011;10644;48.834;10.088;2023-05-19T05:30:29;10.73;;;4.83;;
20970;SDS011;10644;48.834;10.088;2023-05-19T05:32:54;14.60;;;5.67;;
20970;SDS011;10644;48.834;10.088;2023-05-19T05:35:20;13.80;;;5.60;;
20970;SDS011;10644;48.834;10.088;2023-05-19T05:37:48;13.50;;;5.30;;
20970;SDS011;10644;48.834;10.088;2023-05-19T05:40:13;13.23;;;5.23;;
20970;SDS011;10644;48.834;10.088;2023-05-19T05:42:39;10.50;;;5.83;;
20970;SDS011;10644;48.834;10.088;2023-05-19T05:45:05;18.93;;;7.83;;
20970;SDS011;10644;48.834;10.088;2023-05-19T05:47:31;12.53;;;6.50;;
20970;SDS011;10644;48.834;10.088;2023-05-19T05:49:56;16.97;;;6.87;;
20970;SDS011;10644;48.834;10.088;2023-05-19T05:52:22;11.47;;;5.23;;
20970;SDS011;10644;48.834;10.088;2023-05-19T05:54:57;19.20;;;6.13;;
20970;SDS011;10644;48.834;10.088;2023-05-19T05:57:23;10.47;;;5.70;;
20970;SDS011;10644;48.834;10.088;2023-05-19T05:59:48;10.43;;;5.13;;
20970;SDS011;10644;48.834;10.088;2023-05-19T06:02:15;14.60;;;6.00;;
20970;SDS011;10644;48.834;10.088;2023-05-19T06:04:41;17.23;;;7.03;;
20970;SDS011;10644;48.834;10.088;2023-05-19T06:07:06;12.30;;;6.50;;
20970;SDS011;10644;48.834;10.088;2023-05-19T06:09:32;14.33;;;5.87;;
20970;SDS011;10644;48.834;10.088;2023-05-19T06:11:57;11.40;;;5.70;;
20970;SDS011;10644;48.834;10.088;2023-05-19T06:14:25;7.83;;;4.70;;
20970;SDS011;10644;48.834;10.088;2023-05-19T06:16:51;13.37;;;6.10;;
20970;SDS011;10644;48.834;10.088;2023-05-19T06:19:17;10.80;;;5.40;;
20970;SDS011;10644;48.834;10.088;2023-05-19T06:21:43;13.07;;;5.80;;
20970;SDS011;10644;48.834;10.088;2023-05-19T06:24:09;14.53;;;6.30;;
20970;SDS011;10644;48.834;10.088;2023-05-19T06:26:35;14.40;;;6.17;;
20970;SDS011;10644;48.834;10.088;2023-05-19T06:29:00;14.03;;;6.00;;
20970;SDS011;10644;48.834;10.088;2023-05-19T06:31:26;14.57;;;6.03;;
20970;SDS011;10644;48.834;10.088;2023-05-19T06:33:52;10.33;;;5.10;;
20970;SDS011;10644;48.834;10.088;2023-05-19T06:36:20;14.23;;;5.60;;
20970;SDS011;10644;48.834;10.088;2023-05-19T06:38:48;15.80;;;6.27;;
20970;SDS011;10644;48.834;10.088;2023-05-19T06:41:13;15.77;;;5.80;;
20970;SDS011;10644;48.834;10.088;2023-05-19T06:43:38;13.00;;;6.20;;
20970;SDS011;10644;48.834;10.088;2023-05-19T06:46:03;17.93;;;6.27;;
20970;SDS011;10644;48.834;10.088;2023-05-19T06:48:29;19.70;;;7.33;;
20970;SDS011;10644;48.834;10.088;2023-05-19T06:50:54;17.27;;;6.50;;
20970;SDS011;10644;48.834;10.088;2023-05-19T06:53:20;18.50;;;5.37;;
20970;SDS011;10644;48.834;10.088;2023-05-19T06:55:45;20.57;;;5.80;;
20970;SDS011;10644;48.834;10.088;2023-05-19T06:58:14;12.33;;;4.60;;
20970;SDS011;10644;48.834;10.088;2023-05-19T07:00:39;13.97;;;4.67;;
20970;SDS011;10644;48.834;10.088;2023-05-19T07:03:05;11.70;;;4.83;;
20970;SDS011;10644;48.834;10.088;2023-05-19T07:05:30;12.13;;;4.87;;
20970;SDS011;10644;48.834;10.088;2023-05-19T07:07:56;16.23;;;5.90;;
20970;SDS011;10644;48.834;10.088;2023-05-19T07:10:21;9.57;;;5.30;;
20970;SDS011;10644;48.834;10.088;2023-05-19T07:12:46;10.27;;;4.87;;
20970;SDS011;10644;48.834;10.088;2023-05-19T07:15:14;16.20;;;6.20;;
20970;SDS011;10644;48.834;10.088;2023-05-19T07:17:39;11.37;;;6.20;;
20970;SDS011;10644;48.834;10.088;2023-05-19T07:20:05;19.13;;;6.30;;
20970;SDS011;10644;48.834;10.088;2023-05-19T07:22:31;12.60;;;5.20;;
20970;SDS011;10644;48.834;10.088;2023-05-19T07:25:00;11.63;;;5.93;;
20970;SDS011;10644;48.834;10.088;2023-05-19T07:27:25;9.93;;;5.87;;
20970;SDS011;10644;48.834;10.088;2023-05-19T07:29:50;12.50;;;5.70;;
20970;SDS011;10644;48.834;10.088;2023-05-19T07:32:16;11.53;;;5.80;;
20970;SDS011;10644;48.834;10.088;2023-05-19T07:34:41;9.50;;;5.83;;
20970;SDS011;10644;48.834;10.088;2023-05-19T07:37:09;9.47;;;4.30;;
20970;SDS011;10644;48.834;10.088;2023-05-19T07:39:35;12.53;;;5.87;;
20970;SDS011;10644;48.834;10.088;2023-05-19T07:42:00;11.10;;;6.37;;
20970;SDS011;10644;48.834;10.088;2023-05-19T07:44:26;17.70;;;5.63;;
20970;SDS011;10644;48.834;10.088;2023-05-19T07:46:52;14.23;;;6.13;;
20970;SDS011;10644;48.834;10.088;2023-05-19T07:49:18;9.47;;;5.23;;
20970;SDS011;10644;48.834;10.088;2023-05-19T07:51:43;16.37;;;6.47;;
20970;SDS011;10644;48.834;10.088;2023-05-19T07:54:09;10.03;;;5.80;;
20970;SDS011;10644;48.834;10.088;2023-05-19T07:56:36;8.33;;;5.50;;
20970;SDS011;10644;48.834;10.088;2023-05-19T07:59:02;13.33;;;6.30;;
20970;SDS011;10644;48.834;10.088;2023-05-19T08:01:28;13.90;;;6.63;;
20970;SDS011;10644;48.834;10.088;2023-05-19T08:03:54;14.53;;;5.90;;
20970;SDS011;10644;48.834;10.088;2023-05-19T08:06:20;14.43;;;6.17;;
20970;SDS011;10644;48.834;10.088;2023-05-19T08:08:45;13.47;;;5.67;;
20970;SDS011;10644;48.834;10.088;2023-05-19T08:11:11;18.30;;;6.03;;
20970;SDS011;10644;48.834;10.088;2023-05-19T08:13:36;14.90;;;6.10;;
20970;SDS011;10644;48.834;10.088;2023-05-19T08:16:01;13.70;;;6.40;;
20970;SDS011;10644;48.834;10.088;2023-05-19T08:18:29;11.33;;;6.30;;
20970;SDS011;10644;48.834;10.088;2023-05-19T08:20:54;10.77;;;5.00;;
20970;SDS011;10644;48.834;10.088;2023-05-19T08:23:20;11.50;;;5.87;;
20970;SDS011;10644;48.834;10.088;2023-05-19T08:25:46;16.03;;;5.63;;
20970;SDS011;10644;48.834;10.088;2023-05-19T08:28:11;16.60;;;6.70;;
20970;SDS011;10644;48.834;10.088;2023-05-19T08:30:37;9.60;;;5.70;;
20970;SDS011;10644;48.834;10.088;2023-05-19T08:33:05;11.80;;;6.37;;
20970;SDS011;10644;48.834;10.088;2023-05-19T08:35:30;16.57;;;6.03;;
20970;SDS011;10644;48.834;10.088;2023-05-19T08:37:56;17.33;;;5.83;;
20970;SDS011;10644;48.834;10.088;2023-05-19T08:40:21;11.13;;;5.60;;
20970;SDS011;10644;48.834;10.088;2023-05-19T08:42:47;16.67;;;6.20;;
20970;SDS011;10644;48.834;10.088;2023-05-19T08:45:13;10.90;;;6.00;;
20970;SDS011;10644;48.834;10.088;2023-05-19T08:47:39;16.83;;;5.03;;
20970;SDS011;10644;48.834;10.088;2023-05-19T08:50:07;12.87;;;5.20;;
20970;SDS011;10644;48.834;10.088;2023-05-19T08:52:46;12.03;;;5.23;;
20970;SDS011;10644;48.834;10.088;2023-05-19T08:55:21;13.80;;;5.70;;
20970;SDS011;10644;48.834;10.088;2023-05-19T08:57:55;9.63;;;5.30;;
20970;SDS011;10644;48.834;10.088;2023-05-19T09:00:20;12.83;;;6.13;;
20970;SDS011;10644;48.834;10.088;2023-05-19T09:02:49;11.77;;;5.90;;
20970;SDS011;10644;48.834;10.088;2023-05-19T09:05:18;10.87;;;5.60;;
20970;SDS011;10644;48.834;10.088;2023-05-19T09:07:44;14.67;;;5.87;;
20970;SDS011;10644;48.834;10.088;2023-05-19T09:10:12;8.47;;;5.20;;
20970;SDS011;10644;48.834;10.088;2023-05-19T09:12:42;16.53;;;5.77;;
20970;SDS011;10644;48.834;10.088;2023-05-19T09:15:15;10.50;;;3.67;;
20970;SDS011;10644;48.834;10.088;2023-05-19T09:17:43;11.23;;;5.67;;
20970;SDS011;10644;48.834;10.088;2023-05-19T09:20:11;13.87;;;5.23;;
20970;SDS011;10644;48.834;10.088;2023-05-19T09:22:40;15.07;;;5.57;;
20970;SDS011;10644;48.834;10.088;2023-05-19T09:25:16;10.20;;;5.20;;
20970;SDS011;10644;48.834;10.088;2023-05-19T09:27:44;10.37;;;5.50;;
20970;SDS011;10644;48.834;10.088;2023-05-19T09:30:10;10.67;;;5.53;;
20970;SDS011;10644;48.834;10.088;2023-05-19T09:32:37;11.17;;;4.40;;
20970;SDS011;10644;48.834;10.088;2023-05-19T09:35:02;10.23;;;6.23;;
20970;SDS011;10644;48.834;10.088;2023-05-19T09:37:28;41.70;;;23.20;;
20970;SDS011;10644;48.834;10.088;2023-05-19T09:39:53;9.40;;;5.53;;
20970;SDS011;10644;48.834;10.088;2023-05-19T09:42:25;16.67;;;5.50;;
20970;SDS011;10644;48.834;10.088;2023-05-19T09:45:00;8.23;;;5.03;;
20970;SDS011;10644;48.834;10.088;2023-05-19T09:47:32;14.30;;;6.03;;
20970;SDS011;10644;48.834;10.088;2023-05-19T09:50:00;12.83;;;5.50;;
20970;SDS011;10644;48.834;10.088;2023-05-19T09:52:26;9.50;;;5.10;;
20970;SDS011;10644;48.834;10.088;2023-05-19T09:54:52;8.87;;;5.30;;
20970;SDS011;10644;48.834;10.088;2023-05-19T09:57:19;9.03;;;4.90;;
20970;SDS011;10644;48.834;10.088;2023-05-19T09:59:50;8.20;;;3.77;;
20970;SDS011;10644;48.834;10.088;2023-05-19T10:02:17;14.00;;;4.30;;
20970;SDS011;10644;48.834;10.088;2023-05-19T10:04:45;10.97;;;4.53;;
20970;SDS011;10644;48.834;10.088;2023-05-19T10:07:12;10.17;;;5.00;;
20970;SDS011;10644;48.834;10.088;2023-05-19T10:09:42;11.43;;;4.90;;
20970;SDS011;10644;48.834;10.088;2023-05-19T10:12:08;9.40;;;4.87;;
20970;SDS011;10644;48.834;10.088;2023-05-19T10:14:36;8.17;;;4.93;;
20970;SDS011;10644;48.834;10.088;2023-05-19T10:17:02;6.63;;;4.60;;
20970;SDS011;10644;48.834;10.088;2023-05-19T10:19:27;10.93;;;4.30;;
20970;SDS011;10644;48.834;10.088;2023-05-19T10:21:53;8.70;;;4.50;;
20970;SDS011;10644;48.834;10.088;2023-05-19T10:24:19;5.83;;;3.13;;
20970;SDS011;10644;48.834;10.088;2023-05-19T10:26:47;8.67;;;4.93;;
20970;SDS011;10644;48.834;10.088;2023-05-19T10:29:30;10.23;;;5.20;;
20970;SDS011;10644;48.834;10.088;2023-05-19T10:31:59;6.90;;;5.20;;
20970;SDS011;10644;48.834;10.088;2023-05-19T10:34:53;21.23;;;13.03;;
20970;SDS011;10644;48.834;10.088;2023-05-19T10:40:28;20.70;;;10.93;;
20970;SDS011;10644;48.834;10.088;2023-05-19T10:46:11;9.33;;;5.47;;
20970;SDS011;10644;48.834;10.088;2023-05-19T10:48:37;13.90;;;6.03;;
20970;SDS011;10644;48.834;10.088;2023-05-19T10:51:02;8.60;;;5.23;;
20970;SDS011;10644;48.834;10.088;2023-05-19T10:53:31;47.53;;;13.63;;
20970;SDS011;10644;48.834;10.088;2023-05-19T10:56:01;18.67;;;7.33;;
20970;SDS011;10644;48.834;10.088;2023-05-19T10:58:38;44.57;;;19.93;;
20970;SDS011;10644;48.834;10.088;2023-05-19T11:01:13;9.73;;;6.27;;
20970;SDS011;10644;48.834;10.088;2023-05-19T11:08:52;13.00;;;6.67;;
20970;SDS011;10644;48.834;10.088;2023-05-19T11:11:22;12.07;;;6.00;;
20970;SDS011;10644;48.834;10.088;2023-05-19T11:13:52;11.37;;;5.70;;
20970;SDS011;10644;48.834;10.088;2023-05-19T11:16:25;11.37;;;5.80;;
20970;SDS011;10644;48.834;10.088;2023-05-19T11:18:54;12.60;;;7.13;;
20970;SDS011;10644;48.834;10.088;2023-05-19T11:21:20;16.93;;;7.30;;
20970;SDS011;10644;48.834;10.088;2023-05-19T11:23:46;12.17;;;6.37;;
20970;SDS011;10644;48.834;10.088;2023-05-19T11:26:11;19.23;;;8.20;;
20970;SDS011;10644;48.834;10.088;2023-05-19T11:28:37;15.70;;;6.60;;
20970;SDS011;10644;48.834;10.088;2023-05-19T11:31:03;13.07;;;7.50;;
20970;SDS011;10644;48.834;10.088;2023-05-19T11:33:32;13.27;;;7.30;;
20970;SDS011;10644;48.834;10.088;2023-05-19T11:35:58;13.87;;;7.20;;
20970;SDS011;10644;48.834;10.088;2023-05-19T11:38:23;19.77;;;7.80;;
20970;SDS011;10644;48.834;10.088;2023-05-19T11:40:51;10.30;;;5.77;;
20970;SDS011;10644;48.834;10.088;2023-05-19T11:43:17;13.93;;;6.23;;
20970;SDS011;10644;48.834;10.088;2023-05-19T11:45:45;13.60;;;5.87;;
20970;SDS011;10644;48.834;10.088;2023-05-19T11:48:11;13.20;;;6.13;;
20970;SDS011;10644;48.834;10.088;2023-05-19T11:50:37;12.43;;;6.67;;
20970;SDS011;10644;48.834;10.088;2023-05-19T11:53:05;13.43;;;7.30;;
20970;SDS011;10644;48.834;10.088;2023-05-19T11:55:31;15.23;;;7.97;;
20970;SDS011;10644;48.834;10.088;2023-05-19T11:58:00;10.40;;;6.07;;
20970;SDS011;10644;48.834;10.088;2023-05-19T12:00:33;16.57;;;7.10;;
20970;SDS011;10644;48.834;10.088;2023-05-19T12:03:01;12.17;;;5.77;;
20970;SDS011;10644;48.834;10.088;2023-05-19T12:05:29;13.03;;;6.90;;
20970;SDS011;10644;48.834;10.088;2023-05-19T12:07:56;11.20;;;6.80;;
20970;SDS011;10644;48.834;10.088;2023-05-19T12:10:29;8.50;;;5.07;;
20970;SDS011;10644;48.834;10.088;2023-05-19T12:12:55;20.67;;;6.87;;
20970;SDS011;10644;48.834;10.088;2023-05-19T12:15:22;12.60;;;7.77;;
20970;SDS011;10644;48.834;10.088;2023-05-19T12:17:58;11.73;;;5.80;;
20970;SDS011;10644;48.834;10.088;2023-05-19T12:20:25;10.73;;;6.03;;
20970;SDS011;10644;48.834;10.088;2023-05-19T12:22:51;24.93;;;8.57;;
20970;SDS011;10644;48.834;10.088;2023-05-19T12:25:19;13.07;;;6.10;;
20970;SDS011;10644;48.834;10.088;2023-05-19T12:27:47;18.53;;;7.53;;
20970;SDS011;10644;48.834;10.088;2023-05-19T12:30:13;13.80;;;6.90;;
20970;SDS011;10644;48.834;10.088;2023-05-19T12:32:41;17.77;;;7.13;;
20970;SDS011;10644;48.834;10.088;2023-05-19T12:35:07;12.50;;;5.20;;
20970;SDS011;10644;48.834;10.088;2023-05-19T12:37:33;14.33;;;6.50;;
20970;SDS011;10644;48.834;10.088;2023-05-19T12:40:01;18.73;;;8.40;;
20970;SDS011;10644;48.834;10.088;2023-05-19T12:42:28;10.10;;;5.70;;
20970;SDS011;10644;48.834;10.088;2023-05-19T12:44:59;16.77;;;6.57;;
20970;SDS011;10644;48.834;10.088;2023-05-19T12:47:34;33.27;;;11.10;;
20970;SDS011;10644;48.834;10.088;2023-05-19T12:50:07;12.80;;;5.53;;
20970;SDS011;10644;48.834;10.088;2023-05-19T12:52:39;11.60;;;6.70;;
20970;SDS011;10644;48.834;10.088;2023-05-19T12:55:06;11.87;;;6.30;;
20970;SDS011;10644;48.834;10.088;2023-05-19T12:57:38;11.20;;;5.60;;
20970;SDS011;10644;48.834;10.088;2023-05-19T13:02:32;36.43;;;10.20;;
20970;SDS011;10644;48.834;10.088;2023-05-19T13:04:58;201.20;;;56.33;;
20970;SDS011;10644;48.834;10.088;2023-05-19T13:07:24;252.77;;;76.00;;
20970;SDS011;10644;48.834;10.088;2023-05-19T13:09:49;164.70;;;43.43;;
20970;SDS011;10644;48.834;10.088;2023-05-19T13:12:15;13.00;;;5.97;;
20970;SDS011;10644;48.834;10.088;2023-05-19T13:14:40;13.07;;;5.90;;
20970;SDS011;10644;48.834;10.088;2023-05-19T13:17:08;14.10;;;5.35;;
20970;SDS011;10644;48.834;10.088;2023-05-19T13:19:33;9.27;;;5.80;;
20970;SDS011;10644;48.834;10.088;2023-05-19T13:21:58;12.40;;;5.87;;
20970;SDS011;10644;48.834;10.088;2023-05-19T13:24:24;11.00;;;5.33;;
20970;SDS011;10644;48.834;10.088;2023-05-19T13:26:50;12.53;;;5.70;;
20970;SDS011;10644;48.834;10.088;2023-05-19T13:29:18;11.60;;;5.97;;
20970;SDS011;10644;48.834;10.088;2023-05-19T13:31:43;13.17;;;5.10;;
20970;SDS011;10644;48.834;10.088;2023-05-19T13:34:08;13.63;;;5.60;;
20970;SDS011;10644;48.834;10.088;2023-05-19T13:36:37;15.80;;;6.97;;
20970;SDS011;10644;48.834;10.088;2023-05-19T13:39:03;18.63;;;6.03;;
20970;SDS011;10644;48.834;10.088;2023-05-19T13:41:28;9.60;;;5.17;;
20970;SDS011;10644;48.834;10.088;2023-05-19T13:43:56;11.00;;;5.30;;
20970;SDS011;10644;48.834;10.088;2023-05-19T13:46:22;9.77;;;5.43;;
20970;SDS011;10644;48.834;10.088;2023-05-19T13:48:49;9.50;;;4.97;;
20970;SDS011;10644;48.834;10.088;2023-05-19T13:51:14;13.40;;;5.70;;
20970;SDS011;10644;48.834;10.088;2023-05-19T13:53:40;10.73;;;6.97;;
20970;SDS011;10644;48.834;10.088;2023-05-19T13:56:05;9.07;;;6.07;;
20970;SDS011;10644;48.834;10.088;2023-05-19T13:58:33;10.93;;;5.20;;
20970;SDS011;10644;48.834;10.088;2023-05-19T14:00:59;12.57;;;4.57;;
20970;SDS011;10644;48.834;10.088;2023-05-19T14:03:24;6.80;;;4.00;;
20970;SDS011;10644;48.834;10.088;2023-05-19T14:05:52;15.53;;;6.83;;
20970;SDS011;10644;48.834;10.088;2023-05-19T14:08:17;25.80;;;8.37;;
20970;SDS011;10644;48.834;10.088;2023-05-19T14:10:46;41.77;;;14.60;;
20970;SDS011;10644;48.834;10.088;2023-05-19T14:13:11;38.87;;;16.73;;
20970;SDS011;10644;48.834;10.088;2023-05-19T14:15:37;11.50;;;6.20;;
20970;SDS011;10644;48.834;10.088;2023-05-19T14:18:02;11.43;;;5.87;;
20970;SDS011;10644;48.834;10.088;2023-05-19T14:20:28;6.40;;;4.53;;
20970;SDS011;10644;48.834;10.088;2023-05-19T14:22:53;16.33;;;9.30;;
20970;SDS011;10644;48.834;10.088;2023-05-19T14:25:19;6.30;;;5.00;;
20970;SDS011;10644;48.834;10.088;2023-05-19T14:27:47;10.20;;;4.90;;
20970;SDS011;10644;48.834;10.088;2023-05-19T14:30:12;14.77;;;5.60;;
20970;SDS011;10644;48.834;10.088;2023-05-19T14:32:38;7.10;;;4.20;;
20970;SDS011;10644;48.834;10.088;2023-05-19T14:35:03;9.07;;;4.97;;
20970;SDS011;10644;48.834;10.088;2023-05-19T14:37:29;6.87;;;4.37;;
20970;SDS011;10644;48.834;10.088;2023-05-19T14:39:56;5.23;;;4.20;;
20970;SDS011;10644;48.834;10.088;2023-05-19T14:42:22;10.27;;;5.77;;
20970;SDS011;10644;48.834;10.088;2023-05-19T14:44:48;10.47;;;5.17;;
20970;SDS011;10644;48.834;10.088;2023-05-19T14:47:13;8.10;;;4.50;;
20970;SDS011;10644;48.834;10.088;2023-05-19T14:49:42;12.87;;;4.87;;
20970;SDS011;10644;48.834;10.088;2023-05-19T14:52:07;11.73;;;7.43;;
20970;SDS011;10644;48.834;10.088;2023-05-19T14:54:33;20.40;;;12.00;;